createdAt,value
2023-05-21T00:03:31.891Z,9.52
2023-05-21T00:08:35.843Z,9.43
2023-05-21T00:13:39.639Z,10.18
2023-05-21T00:18:45.016Z,8.10
2023-05-21T00:23:48.475Z,10.40
2023-05-21T00:28:52.033Z,9.25
2023-05-21T00:33:57.039Z,9.90
2023-05-21T00:39:00.418Z,10.10
2023-05-21T00:44:03.930Z,7.28
2023-05-21T00:49:09.032Z,8.65
2023-05-21T00:54:12.631Z,8.50
2023-05-21T00:59:17.619Z,10.32
2023-05-21T01:04:23.259Z,10.52
2023-05-21T01:09:27.031Z,8.20
2023-05-21T01:14:32.806Z,9.20
2023-05-21T01:19:38.299Z,7.85
2023-05-21T01:24:47.629Z,8.43
2023-05-21T01:29:51.154Z,8.05
2023-05-21T01:35:03.588Z,6.72
2023-05-21T01:40:17.824Z,7.18
2023-05-21T01:45:24.053Z,6.22
2023-05-21T01:50:28.119Z,6.15
2023-05-21T01:55:34.111Z,6.22
2023-05-21T02:00:39.928Z,6.47
2023-05-21T02:05:43.334Z,5.72
2023-05-21T02:10:48.491Z,6.90
2023-05-21T02:15:54.634Z,6.15
2023-05-21T02:20:58.475Z,9.45
2023-05-21T02:26:03.512Z,6.15
2023-05-21T02:31:07.108Z,5.75
2023-05-21T02:36:13.177Z,5.50
2023-05-21T02:41:20.348Z,5.13
2023-05-21T02:46:24.225Z,4.93
2023-05-21T02:51:29.227Z,8.13
2023-05-21T02:56:34.147Z,8.68
2023-05-21T03:01:38.105Z,6.90
2023-05-21T03:06:42.288Z,5.82
2023-05-21T03:11:47.096Z,6.38
2023-05-21T03:16:51.434Z,4.85
2023-05-21T03:21:56.495Z,5.18
2023-05-21T03:27:02.076Z,5.10
2023-05-21T03:32:06.834Z,6.82
2023-05-21T03:37:11.045Z,4.82
2023-05-21T03:42:16.203Z,6.43
2023-05-21T03:47:25.243Z,4.13
2023-05-21T03:52:30.034Z,5.10
2023-05-21T03:57:34.995Z,6.30
2023-05-21T04:02:38.517Z,4.75
2023-05-21T04:07:42.996Z,5.75
2023-05-21T04:12:49.183Z,5.25
2023-05-21T04:17:53.149Z,5.75
2023-05-21T04:22:56.930Z,4.70
2023-05-21T04:28:02.149Z,4.65
2023-05-21T04:33:05.803Z,4.55
2023-05-21T04:38:12.582Z,4.93
2023-05-21T04:43:18.029Z,4.90
2023-05-21T04:48:22.914Z,6.68
2023-05-21T04:53:26.690Z,3.63
2023-05-21T04:58:32.920Z,9.13
2023-05-21T05:03:36.869Z,5.60
2023-05-21T05:08:40.718Z,5.22
2023-05-21T05:13:45.530Z,6.57
2023-05-21T05:18:49.103Z,5.63
2023-05-21T05:23:52.792Z,5.65
2023-05-21T05:29:01.773Z,6.28
2023-05-21T05:34:05.554Z,5.20
2023-05-21T05:39:09.067Z,5.20
2023-05-21T05:44:14.071Z,5.97
2023-05-21T05:49:17.579Z,5.25
2023-05-21T05:54:21.058Z,5.22
2023-05-21T05:59:26.212Z,6.88
2023-05-21T06:04:33.783Z,6.40
2023-05-21T06:09:38.788Z,4.28
2023-05-21T06:14:45.836Z,5.53
2023-05-21T06:19:49.483Z,7.75
2023-05-21T06:24:53.049Z,5.25
2023-05-21T06:29:58.665Z,5.30
2023-05-21T06:35:02.316Z,5.72
2023-05-21T06:40:08.602Z,5.25
2023-05-21T06:45:14.378Z,4.70
2023-05-21T06:50:21.207Z,4.93
2023-05-21T06:55:24.679Z,4.95
2023-05-21T07:00:52.209Z,4.90
2023-05-21T07:05:55.956Z,5.15
2023-05-21T07:10:59.437Z,4.13
2023-05-21T07:16:04.395Z,4.65
2023-05-21T07:21:08.660Z,5.70
2023-05-21T07:26:13.266Z,5.28
2023-05-21T07:31:18.248Z,5.60
2023-05-21T07:36:24.814Z,7.20
2023-05-21T07:41:28.435Z,5.07
2023-05-21T07:46:35.023Z,5.47
2023-05-21T07:51:38.499Z,8.05
2023-05-21T07:56:42.248Z,6.03
2023-05-21T08:01:54.650Z,10.40
2023-05-21T08:06:58.605Z,17.88
2023-05-21T08:12:02.083Z,8.45
2023-05-21T08:17:08.076Z,13.40
2023-05-21T08:22:11.674Z,7.20
2023-05-21T08:27:19.193Z,9.77
2023-05-21T08:32:24.041Z,7.93
2023-05-21T08:37:27.617Z,10.25
2023-05-21T08:42:45.542Z,9.93
2023-05-21T08:47:58.342Z,9.13
2023-05-21T08:53:12.704Z,8.63
2023-05-21T08:58:27.522Z,22.77
2023-05-21T09:03:33.170Z,19.92
2023-05-21T09:08:43.006Z,14.52
2023-05-21T09:14:01.582Z,19.27
2023-05-21T09:19:38.795Z,14.60
2023-05-21T09:24:44.302Z,15.60
2023-05-21T09:29:47.718Z,8.80
2023-05-21T09:34:56.322Z,9.23
2023-05-21T09:40:00.014Z,9.33
2023-05-21T09:45:04.688Z,11.65
2023-05-21T09:50:12.416Z,10.10
2023-05-21T09:55:17.337Z,9.85
2023-05-21T10:00:23.507Z,10.27
2023-05-21T10:05:30.398Z,9.70
2023-05-21T10:10:34.653Z,10.67
2023-05-21T10:15:44.257Z,10.73
2023-05-21T10:20:49.758Z,11.63
2023-05-21T10:25:55.622Z,9.82
2023-05-21T10:30:59.342Z,9.60
2023-05-21T10:36:04.812Z,10.40
2023-05-21T10:41:09.413Z,10.75
2023-05-21T10:46:47.377Z,12.77
2023-05-21T10:52:05.797Z,12.32
2023-05-21T10:57:31.071Z,13.13
2023-05-21T11:02:35.291Z,13.15
2023-05-21T11:07:58.658Z,12.20
2023-05-21T11:13:15.165Z,14.05
2023-05-21T11:18:18.692Z,15.40
2023-05-21T11:23:24.747Z,11.60
2023-05-21T11:28:35.348Z,11.52
2023-05-21T11:33:38.735Z,12.65
2023-05-21T11:38:43.496Z,12.55
2023-05-21T11:43:46.905Z,13.60
2023-05-21T11:48:52.291Z,15.13
2023-05-21T11:53:59.104Z,11.95
2023-05-21T11:59:04.133Z,12.63
2023-05-21T12:04:08.227Z,15.40
2023-05-21T12:09:13.872Z,17.40
2023-05-21T12:14:17.374Z,11.32
2023-05-21T12:19:21.034Z,17.27
2023-05-21T12:24:25.894Z,17.92
2023-05-21T12:29:31.996Z,15.05
2023-05-21T12:34:44.656Z,14.48
2023-05-21T12:39:51.448Z,17.90
2023-05-21T12:44:55.799Z,11.93
2023-05-21T12:50:00.283Z,12.23
2023-05-21T12:55:09.473Z,11.90
2023-05-21T13:00:14.374Z,12.18
2023-05-21T13:05:19.896Z,11.65
2023-05-21T13:10:25.129Z,14.23
2023-05-21T13:15:28.712Z,15.77
2023-05-21T13:20:32.251Z,11.57
2023-05-21T13:25:37.182Z,10.95
2023-05-21T13:30:41.054Z,13.27
2023-05-21T13:35:45.680Z,13.45
2023-05-21T13:40:50.611Z,13.70
2023-05-21T13:45:54.025Z,12.45
2023-05-21T13:50:57.426Z,13.63
2023-05-21T13:56:02.388Z,11.75
2023-05-21T14:01:06.497Z,12.30
2023-05-21T14:06:10.126Z,12.07
2023-05-21T14:11:14.874Z,12.40
2023-05-21T14:16:18.509Z,12.80
2023-05-21T14:21:22.452Z,12.50
2023-05-21T14:26:27.682Z,12.90
2023-05-21T14:31:31.399Z,13.55
2023-05-21T14:36:34.900Z,11.93
2023-05-21T14:41:41.300Z,12.85
2023-05-21T14:46:44.731Z,12.20
2023-05-21T14:51:48.518Z,15.65
2023-05-21T14:56:54.184Z,12.23
2023-05-21T15:01:57.837Z,10.27
2023-05-21T15:07:01.561Z,16.02
2023-05-21T15:12:07.017Z,12.60
2023-05-21T15:17:10.546Z,12.98
2023-05-21T15:22:13.935Z,10.90
2023-05-21T15:27:18.684Z,13.63
2023-05-21T15:32:22.175Z,12.65
2023-05-21T15:37:26.192Z,10.73
2023-05-21T15:42:31.409Z,11.48
2023-05-21T15:47:34.896Z,10.52
2023-05-21T15:52:38.337Z,12.15
2023-05-21T15:57:43.073Z,15.48
2023-05-21T16:02:46.664Z,11.13
2023-05-21T16:07:50.219Z,12.50
2023-05-21T16:12:54.947Z,11.23
2023-05-21T16:17:58.422Z,12.38
2023-05-21T16:23:02.450Z,12.73
2023-05-21T16:28:07.497Z,12.13
2023-05-21T16:33:11.549Z,13.45
2023-05-21T16:38:14.985Z,12.18
2023-05-21T16:43:19.786Z,11.73
2023-05-21T16:48:23.161Z,10.70
2023-05-21T16:53:26.599Z,11.57
2023-05-21T16:58:33.206Z,11.48
2023-05-21T17:03:36.753Z,10.77
2023-05-21T17:08:41.141Z,10.68
2023-05-21T17:13:47.992Z,11.85
2023-05-21T17:18:52.052Z,13.45
2023-05-21T17:23:55.594Z,11.32
2023-05-21T17:29:00.413Z,11.50
2023-05-21T17:34:03.865Z,13.02
2023-05-21T17:39:07.276Z,13.13
2023-05-21T17:44:13.680Z,13.23
2023-05-21T17:49:17.273Z,12.52
2023-05-21T17:54:21.283Z,11.40
2023-05-21T17:59:26.083Z,10.85
2023-05-21T18:04:29.758Z,13.50
2023-05-21T18:09:33.194Z,12.73
2023-05-21T18:14:38.078Z,12.32
2023-05-21T18:19:41.607Z,10.63
2023-05-21T18:24:45.015Z,10.57
2023-05-21T18:29:49.986Z,12.45
2023-05-21T18:34:53.430Z,12.02
2023-05-21T18:39:56.893Z,12.77
2023-05-21T18:45:08.654Z,11.27
2023-05-21T18:50:14.265Z,13.45
2023-05-21T18:55:17.715Z,13.95
2023-05-21T19:00:22.891Z,11.30
2023-05-21T19:05:26.532Z,17.95
2023-05-21T19:10:30.717Z,14.48
2023-05-21T19:15:35.638Z,12.77
2023-05-21T19:20:39.224Z,15.10
2023-05-21T19:25:42.870Z,13.32
2023-05-21T19:30:47.725Z,10.95
2023-05-21T19:35:52.171Z,10.80
2023-05-21T19:40:55.759Z,14.60
2023-05-21T19:46:00.552Z,10.82
2023-05-21T19:51:04.244Z,13.02
2023-05-21T19:56:08.695Z,13.80
2023-05-21T20:01:14.268Z,9.65
2023-05-21T20:06:19.075Z,11.55
2023-05-21T20:11:22.735Z,10.15
2023-05-21T20:16:27.531Z,10.38
2023-05-21T20:21:32.446Z,9.15
2023-05-21T20:26:36.502Z,13.80
2023-05-21T20:31:41.296Z,9.32
2023-05-21T20:36:44.857Z,10.40
2023-05-21T20:41:48.411Z,8.77
2023-05-21T20:46:53.420Z,11.10
2023-05-21T20:51:56.932Z,9.55
2023-05-21T20:57:00.366Z,11.38
2023-05-21T21:02:05.972Z,10.15
2023-05-21T21:07:10.088Z,12.05
2023-05-21T21:12:25.124Z,10.40
2023-05-21T21:17:32.441Z,11.15
2023-05-21T21:22:35.970Z,10.27
2023-05-21T21:27:39.889Z,8.68
2023-05-21T21:32:44.754Z,8.48
2023-05-21T21:37:48.423Z,9.65
2023-05-21T21:42:51.832Z,10.48
2023-05-21T21:47:56.898Z,9.00
2023-05-21T21:53:01.220Z,9.30
2023-05-21T21:58:07.982Z,13.23
2023-05-21T22:03:14.772Z,8.30
2023-05-21T22:08:18.500Z,9.17
2023-05-21T22:13:22.056Z,8.35
2023-05-21T22:18:39.755Z,8.07
2023-05-21T22:23:44.288Z,7.82
2023-05-21T22:28:47.699Z,6.97
2023-05-21T22:33:53.690Z,6.72
2023-05-21T22:38:57.171Z,7.47
2023-05-21T22:44:00.680Z,7.88
2023-05-21T22:49:06.348Z,6.82
2023-05-21T22:54:09.789Z,5.93
2023-05-21T22:59:13.303Z,7.88
2023-05-21T23:04:19.484Z,7.60
2023-05-21T23:14:27.430Z,7.30
2023-05-21T23:19:34.790Z,7.25
2023-05-21T23:29:42.800Z,8.80
2023-05-21T23:34:48.287Z,6.85
2023-05-21T23:39:52.144Z,8.13
2023-05-21T23:44:55.522Z,7.82
2023-05-21T23:50:00.312Z,5.97
2023-05-21T23:55:03.725Z,7.10
